createdAt,value
2018-11-29T00:01:58.756Z,98274.08
2018-11-29T00:04:26.423Z,98284.53
2018-11-29T00:06:54.078Z,98284.98
2018-11-29T00:09:21.716Z,98289.21
2018-11-29T00:11:49.336Z,98286.63
2018-11-29T00:14:16.971Z,98288.75
2018-11-29T00:16:44.612Z,98288.73
2018-11-29T00:19:12.248Z,98297.25
2018-11-29T00:21:39.874Z,98294.86
2018-11-29T00:24:07.535Z,98296.56
2018-11-29T00:26:35.142Z,98294.10
2018-11-29T00:29:02.805Z,98296.52
2018-11-29T00:31:30.433Z,98293.59
2018-11-29T00:33:58.087Z,98288.80
2018-11-29T00:36:25.710Z,98283.12
2018-11-29T00:38:53.329Z,98275.02
2018-11-29T00:41:20.957Z,98264.33
2018-11-29T00:43:48.571Z,98262.05
2018-11-29T00:46:16.263Z,98248.80
2018-11-29T00:48:43.875Z,98242.59
2018-11-29T00:51:11.555Z,98243.34
2018-11-29T00:53:39.170Z,98244.12
2018-11-29T00:56:06.798Z,98247.39
2018-11-29T00:58:34.427Z,98251.72
2018-11-29T01:01:02.051Z,98254.28
2018-11-29T01:03:29.667Z,98253.52
2018-11-29T01:05:57.278Z,98255.08
2018-11-29T01:08:24.931Z,98259.62
2018-11-29T01:10:52.570Z,98266.18
2018-11-29T01:13:20.192Z,98264.78
2018-11-29T01:15:47.828Z,98268.23
2018-11-29T01:18:15.459Z,98265.02
2018-11-29T01:20:43.100Z,98266.64
2018-11-29T01:23:10.719Z,98269.41
2018-11-29T01:25:38.340Z,98267.23
2018-11-29T01:28:06.006Z,98272.55
2018-11-29T01:30:33.661Z,98271.74
2018-11-29T01:33:01.295Z,98277.87
2018-11-29T01:35:28.910Z,98278.00
2018-11-29T01:37:56.567Z,98271.80
2018-11-29T01:40:24.226Z,98278.22
2018-11-29T01:42:54.458Z,98276.64
2018-11-29T01:45:22.115Z,98283.25
2018-11-29T01:47:49.769Z,98283.59
2018-11-29T01:50:17.417Z,98286.28
2018-11-29T01:52:45.059Z,98276.29
2018-11-29T01:55:12.679Z,98270.67
2018-11-29T01:57:40.291Z,98268.77
2018-11-29T02:00:13.516Z,98255.73
2018-11-29T02:02:41.163Z,98252.80
2018-11-29T02:05:09.462Z,98246.27
2018-11-29T02:07:37.771Z,98240.44
2018-11-29T02:10:11.613Z,98237.16
2018-11-29T02:12:39.267Z,98238.96
2018-11-29T02:15:07.150Z,98235.81
2018-11-29T02:17:34.781Z,98226.33
2018-11-29T02:20:02.500Z,98222.55
2018-11-29T02:22:30.136Z,98217.47
2018-11-29T02:24:57.768Z,98209.64
2018-11-29T02:27:25.384Z,98204.56
2018-11-29T02:29:53.017Z,98198.73
2018-11-29T02:32:20.724Z,98201.80
2018-11-29T02:34:48.367Z,98195.91
2018-11-29T02:37:16.019Z,98188.72
2018-11-29T02:39:43.639Z,98191.64
2018-11-29T02:42:11.266Z,98195.89
2018-11-29T02:44:39.035Z,98187.83
2018-11-29T02:47:06.655Z,98192.98
2018-11-29T02:49:34.301Z,98191.94
2018-11-29T02:52:01.936Z,98205.08
2018-11-29T02:54:29.559Z,98208.57
2018-11-29T02:56:57.203Z,98204.27
2018-11-29T02:59:24.835Z,98205.13
2018-11-29T03:01:52.455Z,98203.73
2018-11-29T03:04:20.083Z,98209.11
2018-11-29T03:06:47.744Z,98214.02
2018-11-29T03:09:15.373Z,98208.59
2018-11-29T03:11:42.990Z,98200.30
2018-11-29T03:14:10.659Z,98208.70
2018-11-29T03:16:38.279Z,98200.53
2018-11-29T03:19:06.192Z,98203.67
2018-11-29T03:21:33.854Z,98198.12
2018-11-29T03:24:01.496Z,98195.31
2018-11-29T03:26:29.124Z,98194.92
2018-11-29T03:28:56.748Z,98194.70
2018-11-29T03:31:24.390Z,98191.12
2018-11-29T03:33:52.038Z,98195.73
2018-11-29T03:36:19.680Z,98187.09
2018-11-29T03:38:47.316Z,98186.86
2018-11-29T03:41:14.954Z,98185.59
2018-11-29T03:43:42.588Z,98184.23
2018-11-29T03:46:10.215Z,98188.20
2018-11-29T03:48:37.853Z,98179.61
2018-11-29T03:51:05.528Z,98167.52
2018-11-29T03:53:33.175Z,98163.33
2018-11-29T03:56:00.794Z,98159.48
2018-11-29T03:58:28.462Z,98159.09
2018-11-29T04:00:56.099Z,98156.77
2018-11-29T04:03:23.734Z,98146.91
2018-11-29T04:05:51.358Z,98144.55
2018-11-29T04:08:18.982Z,98137.75
2018-11-29T04:10:46.616Z,98147.36
2018-11-29T04:13:14.244Z,98148.94
2018-11-29T04:15:41.972Z,98147.95
2018-11-29T04:18:09.607Z,98156.40
2018-11-29T04:20:37.246Z,98151.72
2018-11-29T04:23:04.963Z,98144.47
2018-11-29T04:25:32.599Z,98135.36
2018-11-29T04:28:00.235Z,98137.59
2018-11-29T04:30:27.893Z,98132.43
2018-11-29T04:32:55.531Z,98130.14
2018-11-29T04:35:23.192Z,98117.80
2018-11-29T04:37:51.196Z,98125.36
2018-11-29T04:40:19.856Z,98116.02
2018-11-29T04:42:47.711Z,98026.70
2018-11-29T04:45:16.717Z,98123.50
2018-11-29T04:47:44.379Z,98126.46
2018-11-29T04:50:12.151Z,98129.92
2018-11-29T04:52:40.163Z,98123.86
2018-11-29T04:55:08.634Z,98128.24
2018-11-29T04:57:36.347Z,98131.78
2018-11-29T05:00:04.645Z,98138.73
2018-11-29T05:02:32.474Z,98125.87
2018-11-29T05:05:00.607Z,98125.27
2018-11-29T05:07:28.663Z,98141.23
2018-11-29T05:09:56.320Z,98135.30
2018-11-29T05:12:23.979Z,98124.55
2018-11-29T05:14:51.598Z,98130.81
2018-11-29T05:17:19.284Z,98127.15
2018-11-29T05:19:46.922Z,98131.42
2018-11-29T05:22:14.616Z,98134.46
2018-11-29T05:24:42.262Z,98129.23
2018-11-29T05:27:09.930Z,98128.19
2018-11-29T05:29:37.559Z,98128.34
2018-11-29T05:32:05.466Z,98133.27
2018-11-29T05:34:33.092Z,98125.74
2018-11-29T05:37:00.723Z,98121.62
2018-11-29T05:39:28.350Z,98120.88
2018-11-29T05:41:56.014Z,98116.02
2018-11-29T05:44:23.638Z,98121.09
2018-11-29T05:46:51.331Z,98125.14
2018-11-29T05:49:18.971Z,98121.39
2018-11-29T05:51:46.619Z,98127.53
2018-11-29T05:54:14.259Z,98124.67
2018-11-29T05:56:41.955Z,98121.92
2018-11-29T05:59:09.589Z,98116.84
2018-11-29T06:01:39.186Z,98120.64
2018-11-29T06:04:06.831Z,98124.55
2018-11-29T06:06:34.454Z,98120.81
2018-11-29T06:09:02.105Z,98117.30
2018-11-29T06:11:29.807Z,98123.63
2018-11-29T06:13:57.459Z,98124.67
2018-11-29T06:16:25.270Z,98123.48
2018-11-29T06:18:52.906Z,98124.07
2018-11-29T06:21:20.542Z,98128.10
2018-11-29T06:23:48.170Z,98138.14
2018-11-29T06:26:15.843Z,98137.66
2018-11-29T06:28:43.466Z,98127.51
2018-11-29T06:31:11.104Z,98122.88
2018-11-29T06:33:38.733Z,98119.98
2018-11-29T06:36:06.355Z,98115.06
2018-11-29T06:38:33.996Z,98110.52
2018-11-29T06:41:01.647Z,98111.33
2018-11-29T06:43:29.267Z,98110.73
2018-11-29T06:45:56.887Z,98118.79
2018-11-29T06:48:24.532Z,98127.45
2018-11-29T06:50:52.164Z,98125.20
2018-11-29T06:53:25.131Z,98121.23
2018-11-29T06:55:52.979Z,98121.77
2018-11-29T06:58:20.627Z,98121.98
2018-11-29T07:00:48.411Z,98122.46
2018-11-29T07:03:16.052Z,98124.08
2018-11-29T07:05:43.687Z,98122.91
2018-11-29T07:08:11.340Z,98124.84
2018-11-29T07:10:38.962Z,98129.78
2018-11-29T07:13:06.943Z,98135.15
2018-11-29T07:15:34.572Z,98127.21
2018-11-29T07:18:02.230Z,98123.03
2018-11-29T07:20:29.865Z,98124.22
2018-11-29T07:22:57.519Z,98120.58
2018-11-29T07:25:25.160Z,98111.02
2018-11-29T07:27:52.804Z,98117.30
2018-11-29T07:30:20.529Z,98110.97
2018-11-29T07:32:48.153Z,98113.03
2018-11-29T07:35:16.258Z,98114.10
2018-11-29T07:37:43.895Z,98116.94
2018-11-29T07:40:14.913Z,98118.84
2018-11-29T07:42:42.599Z,98113.65
2018-11-29T07:45:12.091Z,98115.73
2018-11-29T07:47:39.736Z,98115.89
2018-11-29T07:50:10.335Z,98118.05
2018-11-29T07:52:37.966Z,98117.68
2018-11-29T07:55:07.385Z,98116.40
2018-11-29T07:57:35.019Z,98105.34
2018-11-29T08:00:02.684Z,98099.61
2018-11-29T08:02:30.312Z,98096.08
2018-11-29T08:04:57.955Z,98095.52
2018-11-29T08:07:25.582Z,98088.48
2018-11-29T08:09:53.210Z,98087.01
2018-11-29T08:12:20.848Z,98074.91
2018-11-29T08:14:48.492Z,98077.73
2018-11-29T08:17:16.143Z,98084.45
2018-11-29T08:19:43.791Z,98084.95
2018-11-29T08:22:11.425Z,98079.31
2018-11-29T08:24:39.083Z,98075.55
2018-11-29T08:27:06.715Z,98084.38
2018-11-29T08:29:35.155Z,98082.00
2018-11-29T08:32:02.023Z,98078.47
2018-11-29T08:34:29.672Z,98084.02
2018-11-29T08:36:57.349Z,98081.33
2018-11-29T08:39:24.981Z,98080.05
2018-11-29T08:41:52.631Z,98076.56
2018-11-29T08:44:20.276Z,98073.54
2018-11-29T08:46:47.920Z,98068.83
2018-11-29T08:49:15.561Z,98064.23
2018-11-29T08:51:43.209Z,98059.36
2018-11-29T08:54:10.855Z,98050.42
2018-11-29T08:56:38.491Z,98043.77
2018-11-29T08:59:06.391Z,98041.22
2018-11-29T09:01:34.019Z,98043.61
2018-11-29T09:04:01.735Z,98034.70
2018-11-29T09:06:29.387Z,98037.56
2018-11-29T09:08:57.025Z,98036.66
2018-11-29T09:11:24.694Z,98037.96
2018-11-29T09:13:52.328Z,98031.23
2018-11-29T09:16:19.944Z,98031.55
2018-11-29T09:18:47.579Z,98029.53
2018-11-29T09:21:15.226Z,98033.80
2018-11-29T09:23:42.874Z,98031.34
2018-11-29T09:26:10.499Z,98037.38
2018-11-29T09:28:38.121Z,98040.67
2018-11-29T09:31:06.005Z,98029.20
2018-11-29T09:33:33.637Z,98024.91
2018-11-29T09:36:01.267Z,98011.84
2018-11-29T09:38:28.978Z,98007.25
2018-11-29T09:40:56.645Z,98005.00
2018-11-29T09:43:24.318Z,97995.94
2018-11-29T09:45:51.938Z,97990.02
2018-11-29T09:48:19.559Z,97979.33
2018-11-29T09:50:47.224Z,97987.69
2018-11-29T09:53:14.851Z,97984.53
2018-11-29T09:55:42.480Z,97986.78
2018-11-29T09:58:10.115Z,97987.63
2018-11-29T10:00:37.750Z,97979.49
2018-11-29T10:03:09.860Z,97984.83
2018-11-29T10:05:37.623Z,97979.81
2018-11-29T10:08:11.552Z,97967.70
2018-11-29T10:10:33.648Z,97956.90
2018-11-29T10:13:01.289Z,97956.72
2018-11-29T10:15:28.912Z,97967.16
2018-11-29T10:17:56.545Z,97970.16
2018-11-29T10:20:24.180Z,97959.71
2018-11-29T10:22:51.808Z,97968.93
2018-11-29T10:25:19.421Z,97966.17
2018-11-29T10:27:47.971Z,97970.89
2018-11-29T10:30:18.504Z,97967.82
2018-11-29T10:32:46.228Z,97961.59
2018-11-29T10:35:13.910Z,97951.52
2018-11-29T10:37:41.564Z,97947.95
2018-11-29T10:40:09.893Z,97945.77
2018-11-29T10:42:37.532Z,97942.08
2018-11-29T10:45:07.132Z,97944.42
2018-11-29T10:47:34.746Z,97945.81
2018-11-29T10:50:02.381Z,97945.65
2018-11-29T10:52:30.035Z,97938.36
2018-11-29T10:54:57.673Z,97927.67
2018-11-29T10:57:25.356Z,97925.17
2018-11-29T10:59:52.983Z,97922.17
2018-11-29T11:02:25.868Z,97923.67
2018-11-29T11:04:53.488Z,97921.25
2018-11-29T11:07:21.098Z,97917.83
2018-11-29T11:09:48.754Z,97912.37
2018-11-29T11:12:18.761Z,97913.30
2018-11-29T11:14:44.059Z,97901.58
2018-11-29T11:17:11.688Z,97887.44
2018-11-29T11:19:39.323Z,97882.44
2018-11-29T11:22:06.962Z,97881.02
2018-11-29T11:24:34.616Z,97875.45
2018-11-29T11:27:02.238Z,97875.30
2018-11-29T11:29:29.867Z,97870.45
2018-11-29T11:31:57.492Z,97881.45
2018-11-29T11:34:25.135Z,97876.33
2018-11-29T11:36:52.776Z,97881.59
2018-11-29T11:39:20.403Z,97873.95
2018-11-29T11:41:48.060Z,97869.61
2018-11-29T11:44:15.671Z,97869.34
2018-11-29T11:46:43.306Z,97867.58
2018-11-29T11:49:10.936Z,97855.86
2018-11-29T11:51:38.560Z,97848.45
2018-11-29T11:54:06.196Z,97849.48
2018-11-29T11:56:33.833Z,97838.92
2018-11-29T11:59:01.480Z,97833.23
2018-11-29T12:01:29.114Z,97824.02
2018-11-29T12:03:56.776Z,97816.98
2018-11-29T12:06:24.403Z,97808.91
2018-11-29T12:08:52.038Z,97813.87
2018-11-29T12:11:19.676Z,97807.69
2018-11-29T12:13:47.327Z,97799.58
2018-11-29T12:16:14.960Z,97800.30
2018-11-29T12:18:42.616Z,97799.39
2018-11-29T12:21:10.226Z,97800.15
2018-11-29T12:23:37.932Z,97798.70
2018-11-29T12:26:05.662Z,97802.50
2018-11-29T12:28:33.296Z,97799.84
2018-11-29T12:31:00.949Z,97806.22
2018-11-29T12:33:28.588Z,97801.03
2018-11-29T12:35:56.224Z,97800.05
2018-11-29T12:38:23.886Z,97804.27
2018-11-29T12:40:51.520Z,97810.26
2018-11-29T12:43:19.150Z,97812.95
2018-11-29T12:45:46.780Z,97812.72
2018-11-29T12:48:14.424Z,97808.11
2018-11-29T12:50:42.068Z,97801.08
2018-11-29T12:53:09.690Z,97794.05
2018-11-29T12:55:42.025Z,97792.13
2018-11-29T12:58:09.653Z,97794.09
2018-11-29T13:00:37.303Z,97787.41
2018-11-29T13:05:35.643Z,97778.42
2018-11-29T13:08:03.267Z,97778.86
2018-11-29T13:10:30.907Z,97762.73
2018-11-29T13:12:58.540Z,97763.34
2018-11-29T13:15:27.776Z,97754.97
2018-11-29T13:17:55.751Z,97753.20
2018-11-29T13:20:23.402Z,97752.36
2018-11-29T13:22:51.040Z,97758.64
2018-11-29T13:25:19.200Z,97756.31
2018-11-29T13:27:46.927Z,97758.05
2018-11-29T13:30:15.142Z,97751.24
2018-11-29T13:32:42.811Z,97736.95
2018-11-29T13:35:12.879Z,97741.11
2018-11-29T13:37:40.548Z,97743.48
2018-11-29T13:40:09.608Z,97745.56
2018-11-29T13:42:37.502Z,97740.00
2018-11-29T13:45:06.035Z,97726.42
2018-11-29T13:47:33.650Z,97728.70
2018-11-29T13:50:01.302Z,97731.59
2018-11-29T13:52:29.001Z,97736.27
2018-11-29T13:54:56.618Z,97733.12
2018-11-29T13:57:24.250Z,97738.11
2018-11-29T13:59:51.868Z,97725.42
2018-11-29T14:02:19.523Z,97721.95
2018-11-29T14:04:47.149Z,97716.27
2018-11-29T14:07:14.795Z,97513.61
2018-11-29T14:09:42.500Z,97702.25
2018-11-29T14:12:10.122Z,97716.81
2018-11-29T14:14:37.749Z,97713.48
2018-11-29T14:17:05.373Z,97718.55
2018-11-29T14:19:32.995Z,97722.42
2018-11-29T14:22:00.614Z,97714.13
2018-11-29T14:24:28.231Z,97704.63
2018-11-29T14:26:55.890Z,97706.59
2018-11-29T14:29:23.528Z,97704.95
2018-11-29T14:31:51.188Z,97710.63
2018-11-29T14:34:18.811Z,97723.30
2018-11-29T14:36:46.469Z,97723.53
2018-11-29T14:39:14.114Z,97711.75
2018-11-29T14:41:41.737Z,97716.47
2018-11-29T14:44:09.387Z,97713.09
2018-11-29T14:46:37.008Z,97703.76
2018-11-29T14:49:04.645Z,97706.19
2018-11-29T14:51:32.425Z,97695.74
2018-11-29T14:54:00.050Z,97694.97
2018-11-29T14:56:27.680Z,97694.35
2018-11-29T14:58:55.341Z,97702.23
2018-11-29T15:01:23.029Z,97707.53
2018-11-29T15:03:50.648Z,97718.05
2018-11-29T15:06:18.264Z,97713.30
2018-11-29T15:08:45.907Z,97710.06
2018-11-29T15:11:13.579Z,97704.30
2018-11-29T15:13:41.203Z,97704.80
2018-11-29T15:16:08.836Z,97708.00
2018-11-29T15:18:36.460Z,97711.45
2018-11-29T15:21:04.144Z,97711.64
2018-11-29T15:23:31.778Z,97706.80
2018-11-29T15:25:59.415Z,97712.80
2018-11-29T15:28:27.035Z,97716.41
2018-11-29T15:30:54.684Z,97715.88
2018-11-29T15:33:22.314Z,97715.15
2018-11-29T15:35:49.970Z,97712.88
2018-11-29T15:38:17.645Z,97718.12
2018-11-29T15:40:45.274Z,97714.53
2018-11-29T15:43:12.907Z,97711.84
2018-11-29T15:45:40.518Z,97703.94
2018-11-29T15:48:08.166Z,97702.09
2018-11-29T15:50:35.801Z,97696.11
2018-11-29T15:53:03.530Z,97696.11
2018-11-29T15:55:31.207Z,97687.73
2018-11-29T15:57:58.836Z,97683.39
2018-11-29T16:00:27.100Z,97694.22
2018-11-29T16:02:55.283Z,97698.25
2018-11-29T16:05:23.706Z,97700.63
2018-11-29T16:07:51.457Z,97689.00
2018-11-29T16:10:19.762Z,97698.80
2018-11-29T16:12:47.499Z,97702.75
2018-11-29T16:15:15.721Z,97701.09
2018-11-29T16:17:43.673Z,97699.02
2018-11-29T16:20:13.103Z,97702.52
2018-11-29T16:22:40.928Z,97697.14
2018-11-29T16:25:09.380Z,97701.60
2018-11-29T16:27:37.112Z,97713.95
2018-11-29T16:30:07.924Z,97714.42
2018-11-29T16:32:35.674Z,97706.05
2018-11-29T16:35:03.521Z,97706.86
2018-11-29T16:37:31.148Z,97710.89
2018-11-29T16:39:58.867Z,97709.00
2018-11-29T16:42:26.602Z,97711.50
2018-11-29T16:44:54.336Z,97709.85
2018-11-29T16:47:22.048Z,97706.44
2018-11-29T16:49:49.818Z,97703.56
2018-11-29T16:52:17.503Z,97698.38
2018-11-29T16:54:45.123Z,97700.94
2018-11-29T16:57:12.760Z,97696.49
2018-11-29T16:59:40.400Z,97699.58
2018-11-29T17:02:08.035Z,97691.98
2018-11-29T17:04:35.664Z,97696.08
2018-11-29T17:07:03.316Z,97694.16
2018-11-29T17:09:30.947Z,97692.89
2018-11-29T17:12:00.284Z,97690.13
2018-11-29T17:14:26.299Z,97692.59
2018-11-29T17:16:53.938Z,97696.20
2018-11-29T17:19:21.853Z,97694.01
2018-11-29T17:21:49.471Z,97693.70
2018-11-29T17:24:17.082Z,97695.58
2018-11-29T17:26:44.695Z,97698.50
2018-11-29T17:29:12.320Z,97699.42
2018-11-29T17:31:39.946Z,97705.30
2018-11-29T17:34:07.581Z,97703.53
2018-11-29T17:36:35.203Z,97702.73
2018-11-29T17:39:02.918Z,97698.08
2018-11-29T17:41:30.559Z,97695.70
2018-11-29T17:43:58.526Z,97690.41
2018-11-29T17:46:30.479Z,97674.47
2018-11-29T17:48:58.197Z,97679.58
2018-11-29T17:51:25.893Z,97678.13
2018-11-29T17:53:53.511Z,97672.95
2018-11-29T17:56:21.181Z,97669.30
2018-11-29T17:58:48.802Z,97660.63
2018-11-29T18:01:16.525Z,97650.11
2018-11-29T18:03:44.163Z,97653.28
2018-11-29T18:06:11.794Z,97653.10
2018-11-29T18:08:39.441Z,97648.04
2018-11-29T18:11:07.596Z,97645.77
2018-11-29T18:13:35.744Z,97643.39
2018-11-29T18:16:03.395Z,97641.81
2018-11-29T18:18:31.019Z,97643.47
2018-11-29T18:20:58.664Z,97633.80
2018-11-29T18:23:26.317Z,97635.15
2018-11-29T18:25:54.363Z,97649.20
2018-11-29T18:28:22.020Z,97629.00
2018-11-29T18:30:49.651Z,97631.80
2018-11-29T18:33:17.282Z,97633.98
2018-11-29T18:35:44.911Z,97633.03
2018-11-29T18:38:12.545Z,97646.62
2018-11-29T18:40:40.194Z,97650.95
2018-11-29T18:43:08.616Z,97648.95
2018-11-29T18:45:36.253Z,97644.11
2018-11-29T18:48:03.884Z,97635.41
2018-11-29T18:50:31.547Z,97627.35
2018-11-29T18:52:59.185Z,97622.52
2018-11-29T18:55:26.798Z,97609.40
2018-11-29T18:57:55.103Z,97601.65
2018-11-29T19:00:24.435Z,97599.69
2018-11-29T19:02:56.741Z,97596.77
2018-11-29T19:05:19.733Z,97588.45
2018-11-29T19:07:47.360Z,97589.25
2018-11-29T19:10:16.376Z,97595.97
2018-11-29T19:12:44.757Z,97600.92
2018-11-29T19:15:12.743Z,97610.33
2018-11-29T19:17:40.457Z,97619.42
2018-11-29T19:20:09.391Z,97619.60
2018-11-29T19:22:37.018Z,97620.69
2018-11-29T19:25:05.106Z,97615.57
2018-11-29T19:27:32.778Z,97612.62
2018-11-29T19:30:04.301Z,97616.30
2018-11-29T19:32:28.126Z,97618.98
2018-11-29T19:34:55.756Z,97611.16
2018-11-29T19:37:23.403Z,97618.18
2018-11-29T19:39:51.047Z,97623.32
2018-11-29T19:42:18.680Z,97624.97
2018-11-29T19:44:46.316Z,97632.64
2018-11-29T19:47:13.943Z,97633.27
2018-11-29T19:49:41.599Z,97635.95
2018-11-29T19:52:09.255Z,97643.52
2018-11-29T19:54:36.879Z,97644.63
2018-11-29T19:57:04.652Z,97651.58
2018-11-29T19:59:32.308Z,97643.20
2018-11-29T20:01:59.937Z,97647.73
2018-11-29T20:04:27.573Z,97645.66
2018-11-29T20:06:55.218Z,97648.53
2018-11-29T20:09:22.843Z,97649.30
2018-11-29T20:11:50.466Z,97644.42
2018-11-29T20:14:18.093Z,97643.08
2018-11-29T20:16:45.811Z,97635.10
2018-11-29T20:19:13.472Z,97634.17
2018-11-29T20:21:41.113Z,97613.77
2018-11-29T20:24:08.771Z,97622.13
2018-11-29T20:26:36.410Z,97625.39
2018-11-29T20:29:04.132Z,97618.00
2018-11-29T20:31:31.757Z,97606.40
2018-11-29T20:33:59.379Z,97597.80
2018-11-29T20:36:27.023Z,97590.70
2018-11-29T20:38:54.659Z,97595.42
2018-11-29T20:41:22.343Z,97598.95
2018-11-29T20:43:49.994Z,97585.86
2018-11-29T20:46:17.620Z,97593.25
2018-11-29T20:48:45.830Z,97602.34
2018-11-29T20:51:13.495Z,97602.58
2018-11-29T20:53:41.171Z,97603.69
2018-11-29T20:56:09.652Z,97613.14
2018-11-29T20:58:37.336Z,97617.73
2018-11-29T21:01:05.392Z,97613.86
2018-11-29T21:03:33.021Z,97615.78
2018-11-29T21:06:00.667Z,97616.76
2018-11-29T21:08:28.303Z,97623.55
2018-11-29T21:10:55.951Z,97625.31
2018-11-29T21:13:23.683Z,97617.73
2018-11-29T21:15:51.303Z,97612.73
2018-11-29T21:18:18.960Z,97612.50
2018-11-29T21:20:46.587Z,97608.47
2018-11-29T21:23:14.950Z,97585.86
2018-11-29T21:25:42.649Z,97592.58
2018-11-29T21:28:10.287Z,97592.58
2018-11-29T21:30:37.949Z,97564.27
2018-11-29T21:33:05.932Z,97542.95
2018-11-29T21:35:33.616Z,97543.50
2018-11-29T21:38:04.746Z,97551.25
2018-11-29T21:40:32.480Z,97558.45
2018-11-29T21:43:00.108Z,97551.66
2018-11-29T21:45:27.845Z,97558.28
2018-11-29T21:47:55.500Z,97569.59
2018-11-29T21:50:23.164Z,97571.48
2018-11-29T21:52:50.812Z,97555.45
2018-11-29T21:55:18.467Z,97557.42
2018-11-29T21:57:46.127Z,97551.02
2018-11-29T22:00:14.602Z,97542.34
2018-11-29T22:02:43.431Z,97553.70
2018-11-29T22:05:11.116Z,97552.98
2018-11-29T22:07:38.797Z,97558.28
2018-11-29T22:10:06.470Z,97565.39
2018-11-29T22:12:34.125Z,97554.55
2018-11-29T22:15:01.780Z,97546.27
2018-11-29T22:17:29.439Z,97539.16
2018-11-29T22:19:57.091Z,97534.72
2018-11-29T22:22:28.348Z,97533.38
2018-11-29T22:24:52.463Z,97532.22
2018-11-29T22:27:20.095Z,97529.30
2018-11-29T22:29:47.740Z,97530.47
2018-11-29T22:32:15.381Z,97527.86
2018-11-29T22:34:43.035Z,97530.23
2018-11-29T22:37:10.773Z,97537.34
2018-11-29T22:39:38.386Z,97538.03
2018-11-29T22:42:06.031Z,97527.86
2018-11-29T22:44:33.739Z,97532.97
2018-11-29T22:47:01.404Z,97532.74
2018-11-29T22:49:29.078Z,97537.34
2018-11-29T22:51:56.792Z,97532.59
2018-11-29T22:54:24.537Z,97544.11
2018-11-29T22:56:52.479Z,97550.72
2018-11-29T22:59:20.140Z,97556.81
2018-11-29T23:01:47.819Z,97552.78
2018-11-29T23:04:15.480Z,97550.98
2018-11-29T23:06:43.157Z,97551.13
2018-11-29T23:09:10.814Z,97547.10
2018-11-29T23:11:38.494Z,97548.11
2018-11-29T23:14:06.385Z,97538.59
2018-11-29T23:16:34.136Z,97548.52
2018-11-29T23:19:01.843Z,97551.70
2018-11-29T23:21:29.485Z,97551.94
2018-11-29T23:23:57.143Z,97551.39
2018-11-29T23:26:24.836Z,97544.42
2018-11-29T23:28:52.516Z,97550.67
2018-11-29T23:31:20.329Z,97551.52
2018-11-29T23:33:48.022Z,97548.66
2018-11-29T23:36:15.762Z,97549.64
2018-11-29T23:38:43.408Z,97556.09
2018-11-29T23:41:11.096Z,97556.91
2018-11-29T23:43:38.743Z,97551.94
2018-11-29T23:46:06.379Z,97557.75
2018-11-29T23:48:34.044Z,97558.62
2018-11-29T23:51:01.787Z,97556.48
2018-11-29T23:53:29.436Z,97550.26
2018-11-29T23:55:57.148Z,97547.08
2018-11-29T23:58:24.820Z,97544.17
